createdAt,value
2023-05-11T00:04:39.823Z,11.61
2023-05-11T00:09:41.737Z,11.67
2023-05-11T00:14:43.318Z,11.66
2023-05-11T00:19:44.848Z,11.67
2023-05-11T00:24:46.443Z,11.63
2023-05-11T00:29:47.986Z,11.61
2023-05-11T00:34:49.511Z,11.63
2023-05-11T00:39:51.072Z,11.64
2023-05-11T00:44:52.529Z,11.61
2023-05-11T00:49:54.884Z,11.65
2023-05-11T00:54:56.614Z,11.67
2023-05-11T00:59:58.182Z,11.66
2023-05-11T01:05:00.588Z,11.66
2023-05-11T01:10:20.891Z,11.66
2023-05-11T01:15:40.356Z,11.67
2023-05-11T01:20:44.791Z,11.64
2023-05-11T01:26:27.978Z,11.65
2023-05-11T01:31:32.210Z,11.63
2023-05-11T01:36:36.133Z,11.61
2023-05-11T01:41:40.162Z,11.62
2023-05-11T01:46:41.697Z,11.56
2023-05-11T01:51:45.429Z,11.57
2023-05-11T01:56:49.890Z,11.58
2023-05-11T02:01:51.516Z,11.61
2023-05-11T02:06:55.180Z,11.60
2023-05-11T02:11:57.664Z,11.61
2023-05-11T02:17:00.407Z,11.60
2023-05-11T02:22:03.178Z,11.62
2023-05-11T02:27:04.869Z,11.63
2023-05-11T02:32:13.079Z,11.54
2023-05-11T02:37:21.196Z,11.51
2023-05-11T02:42:23.736Z,11.50
2023-05-11T02:47:30.179Z,11.49
2023-05-11T02:52:34.645Z,11.45
2023-05-11T02:57:36.241Z,11.43
2023-05-11T03:02:37.824Z,11.43
2023-05-11T03:07:39.520Z,11.39
2023-05-11T03:12:41.220Z,11.36
2023-05-11T03:17:43.683Z,11.32
2023-05-11T03:22:46.768Z,11.32
2023-05-11T03:27:51.251Z,11.30
2023-05-11T03:32:52.956Z,11.27
2023-05-11T03:37:56.526Z,11.21
2023-05-11T03:43:00.087Z,11.18
2023-05-11T03:48:03.905Z,11.11
2023-05-11T03:53:06.079Z,11.05
2023-05-11T03:58:11.099Z,10.98
2023-05-11T04:03:12.833Z,10.99
2023-05-11T04:08:14.717Z,11.02
2023-05-11T04:13:16.191Z,11.05
2023-05-11T04:18:17.778Z,11.02
2023-05-11T04:23:19.309Z,11.04
2023-05-11T04:28:22.359Z,11.06
2023-05-11T04:33:24.279Z,11.09
2023-05-11T04:38:26.402Z,11.08
2023-05-11T04:43:27.915Z,11.14
2023-05-11T04:48:29.521Z,11.20
2023-05-11T04:53:31.063Z,11.27
2023-05-11T04:58:32.537Z,11.31
2023-05-11T05:03:34.155Z,11.30
2023-05-11T05:08:35.720Z,11.41
2023-05-11T05:13:37.235Z,11.44
2023-05-11T05:18:38.964Z,11.46
2023-05-11T05:23:40.549Z,11.59
2023-05-11T05:28:42.006Z,11.67
2023-05-11T05:33:43.569Z,11.77
2023-05-11T05:38:45.177Z,11.81
2023-05-11T05:43:46.773Z,11.82
2023-05-11T05:48:48.284Z,11.86
2023-05-11T05:53:49.818Z,11.91
2023-05-11T05:58:51.371Z,11.91
2023-05-11T06:03:53.555Z,12.04
2023-05-11T06:08:55.288Z,12.11
2023-05-11T06:13:56.881Z,12.22
2023-05-11T06:19:00.223Z,12.27
2023-05-11T06:24:01.847Z,12.30
2023-05-11T06:29:03.378Z,12.36
2023-05-11T06:34:04.917Z,12.50
2023-05-11T06:39:06.909Z,12.55
2023-05-11T06:44:08.512Z,12.48
2023-05-11T06:49:10.063Z,12.54
2023-05-11T06:54:11.724Z,12.55
2023-05-11T06:59:13.829Z,12.58
2023-05-11T07:04:15.445Z,12.63
2023-05-11T07:09:17.071Z,12.63
2023-05-11T07:14:18.933Z,12.60
2023-05-11T07:19:20.471Z,12.63
2023-05-11T07:24:21.973Z,12.65
2023-05-11T07:29:23.536Z,12.70
2023-05-11T07:34:25.044Z,12.80
2023-05-11T07:39:26.728Z,12.87
2023-05-11T07:44:28.256Z,12.96
2023-05-11T07:49:39.959Z,12.92
2023-05-11T07:54:44.896Z,12.94
2023-05-11T07:59:46.452Z,12.99
2023-05-11T08:04:48.039Z,12.94
2023-05-11T08:09:49.685Z,12.99
2023-05-11T08:14:51.224Z,12.99
2023-05-11T08:19:52.917Z,12.98
2023-05-11T08:24:54.459Z,13.01
2023-05-11T08:29:56.014Z,13.01
2023-05-11T08:34:57.871Z,13.00
2023-05-11T08:39:59.628Z,13.07
2023-05-11T08:45:02.217Z,13.32
2023-05-11T08:50:04.411Z,13.46
2023-05-11T08:55:07.107Z,13.59
2023-05-11T09:00:09.185Z,13.65
2023-05-11T09:05:11.277Z,13.82
2023-05-11T09:10:14.008Z,13.96
2023-05-11T09:15:15.717Z,14.15
2023-05-11T09:20:27.367Z,14.22
2023-05-11T09:25:32.320Z,14.00
2023-05-11T09:30:33.908Z,14.02
2023-05-11T09:35:35.989Z,14.02
2023-05-11T09:40:57.710Z,13.91
2023-05-11T09:46:07.196Z,13.82
2023-05-11T09:51:09.162Z,13.80
2023-05-11T09:56:15.538Z,13.79
2023-05-11T10:01:27.777Z,13.76
2023-05-11T10:06:46.668Z,13.97
2023-05-11T10:11:49.323Z,14.06
2023-05-11T10:16:52.054Z,14.04
2023-05-11T10:21:55.371Z,14.15
2023-05-11T10:26:57.474Z,14.38
2023-05-11T10:32:00.235Z,14.71
2023-05-11T10:37:02.609Z,15.08
2023-05-11T10:42:25.586Z,16.62
2023-05-11T10:47:32.979Z,16.97
2023-05-11T10:52:55.860Z,16.62
2023-05-11T10:58:13.197Z,16.12
2023-05-11T11:03:15.480Z,16.11
2023-05-11T11:08:16.991Z,16.11
2023-05-11T11:13:20.606Z,16.33
2023-05-11T11:18:29.911Z,16.44
2023-05-11T11:23:49.989Z,16.63
2023-05-11T11:28:54.278Z,16.64
2023-05-11T11:34:01.097Z,16.67
2023-05-11T11:39:03.903Z,16.43
2023-05-11T11:44:05.506Z,16.32
2023-05-11T11:49:08.415Z,16.24
2023-05-11T11:54:10.319Z,16.25
2023-05-11T11:59:14.005Z,16.35
2023-05-11T12:04:40.753Z,16.47
2023-05-11T12:09:46.062Z,16.43
2023-05-11T12:14:50.723Z,16.31
2023-05-11T12:19:52.335Z,16.46
2023-05-11T12:24:59.639Z,16.53
2023-05-11T12:30:02.063Z,16.48
2023-05-11T12:35:04.669Z,16.43
2023-05-11T12:40:10.950Z,16.57
2023-05-11T12:45:12.633Z,16.23
2023-05-11T12:50:14.296Z,16.15
2023-05-11T12:55:27.940Z,16.25
2023-05-11T13:00:29.458Z,16.23
2023-05-11T13:05:30.952Z,16.20
2023-05-11T13:10:32.611Z,16.22
2023-05-11T13:15:34.533Z,16.41
2023-05-11T13:20:36.568Z,16.67
2023-05-11T13:25:49.881Z,16.58
2023-05-11T13:30:52.639Z,16.32
2023-05-11T13:35:54.343Z,16.30
2023-05-11T13:40:55.845Z,16.36
2023-05-11T13:45:57.343Z,16.49
2023-05-11T13:50:58.887Z,16.38
2023-05-11T13:56:01.647Z,16.40
2023-05-11T14:01:07.672Z,16.51
2023-05-11T14:06:10.262Z,16.49
2023-05-11T14:11:11.796Z,16.59
2023-05-11T14:16:13.767Z,16.56
2023-05-11T14:21:16.013Z,16.68
2023-05-11T14:26:17.576Z,16.68
2023-05-11T14:31:19.129Z,16.67
2023-05-11T14:36:20.632Z,16.62
2023-05-11T14:41:22.196Z,16.54
2023-05-11T14:46:26.674Z,16.71
2023-05-11T14:51:28.547Z,16.82
2023-05-11T14:56:30.087Z,16.67
2023-05-11T15:01:31.587Z,16.76
2023-05-11T15:06:33.162Z,16.86
2023-05-11T15:11:37.456Z,16.67
2023-05-11T15:16:39.004Z,16.64
2023-05-11T15:21:40.753Z,16.80
2023-05-11T15:26:43.367Z,16.80
2023-05-11T15:31:44.915Z,16.67
2023-05-11T15:36:48.500Z,16.64
2023-05-11T15:41:50.068Z,16.56
2023-05-11T15:46:51.613Z,16.54
2023-05-11T15:51:53.223Z,16.40
2023-05-11T15:56:54.735Z,16.34
2023-05-11T16:01:56.299Z,16.37
2023-05-11T16:06:58.962Z,16.32
2023-05-11T16:12:00.971Z,16.21
2023-05-11T16:17:02.844Z,16.29
2023-05-11T16:22:04.483Z,16.35
2023-05-11T16:27:05.993Z,16.35
2023-05-11T16:32:07.580Z,16.36
2023-05-11T16:37:10.235Z,16.22
2023-05-11T16:42:12.041Z,16.14
2023-05-11T16:47:13.571Z,16.03
2023-05-11T16:52:15.102Z,15.83
2023-05-11T16:57:16.644Z,15.73
2023-05-11T17:02:19.740Z,15.76
2023-05-11T17:07:21.341Z,15.68
2023-05-11T17:12:23.509Z,15.66
2023-05-11T17:17:25.165Z,15.66
2023-05-11T17:22:28.431Z,15.43
2023-05-11T17:27:31.517Z,15.36
2023-05-11T17:32:33.509Z,15.42
2023-05-11T17:37:35.240Z,15.34
2023-05-11T17:42:36.772Z,15.31
2023-05-11T17:47:38.408Z,15.16
2023-05-11T17:52:39.920Z,14.97
2023-05-11T17:57:41.758Z,14.79
2023-05-11T18:02:46.860Z,14.74
2023-05-11T18:07:49.447Z,14.72
2023-05-11T18:12:50.990Z,14.59
2023-05-11T18:17:54.108Z,14.56
2023-05-11T18:22:56.571Z,14.56
2023-05-11T18:28:02.130Z,14.46
2023-05-11T18:33:03.693Z,14.31
2023-05-11T18:38:05.339Z,14.20
2023-05-11T18:43:06.814Z,14.12
2023-05-11T18:48:08.447Z,14.03
2023-05-11T18:53:10.082Z,13.95
2023-05-11T18:58:12.705Z,13.80
2023-05-11T19:03:15.142Z,13.69
2023-05-11T19:08:16.798Z,13.65
2023-05-11T19:13:18.952Z,13.45
2023-05-11T19:18:20.527Z,13.42
2023-05-11T19:23:22.185Z,13.30
2023-05-11T19:28:23.793Z,13.23
2023-05-11T19:33:25.274Z,13.12
2023-05-11T19:38:26.921Z,13.13
2023-05-11T19:43:28.437Z,13.02
2023-05-11T19:48:30.789Z,12.96
2023-05-11T19:53:32.510Z,12.97
2023-05-11T19:58:34.246Z,12.85
2023-05-11T20:03:35.913Z,12.72
2023-05-11T20:08:37.688Z,12.60
2023-05-11T20:13:39.174Z,12.57
2023-05-11T20:18:40.750Z,12.63
2023-05-11T20:23:42.395Z,12.65
2023-05-11T20:28:43.922Z,12.53
2023-05-11T20:38:52.843Z,12.40
2023-05-11T20:43:54.832Z,12.36
2023-05-11T20:48:56.978Z,12.34
2023-05-11T20:53:58.518Z,12.34
2023-05-11T20:59:00.117Z,12.23
2023-05-11T21:04:01.659Z,12.22
2023-05-11T21:09:04.411Z,12.21
2023-05-11T21:14:05.959Z,12.13
2023-05-11T21:19:07.910Z,12.10
2023-05-11T21:24:09.491Z,12.00
2023-05-11T21:29:12.999Z,12.07
2023-05-11T21:34:14.948Z,12.06
2023-05-11T21:39:16.480Z,12.06
2023-05-11T21:44:17.999Z,11.95
2023-05-11T21:49:19.553Z,11.94
2023-05-11T21:54:22.406Z,11.80
2023-05-11T21:59:26.708Z,11.75
2023-05-11T22:04:28.434Z,11.79
2023-05-11T22:09:31.519Z,11.77
2023-05-11T22:14:33.045Z,11.73
2023-05-11T22:19:34.561Z,11.73
2023-05-11T22:24:36.096Z,11.65
2023-05-11T22:29:37.616Z,11.56
2023-05-11T22:34:39.133Z,11.57
2023-05-11T22:39:40.620Z,11.54
2023-05-11T22:44:42.293Z,11.53
2023-05-11T22:49:43.836Z,11.46
2023-05-11T22:54:45.366Z,11.43
2023-05-11T22:59:46.844Z,11.45
2023-05-11T23:04:52.208Z,11.49
2023-05-11T23:09:53.738Z,11.47
2023-05-11T23:14:55.281Z,11.41
2023-05-11T23:19:56.909Z,11.38
2023-05-11T23:25:00.370Z,11.40
2023-05-11T23:30:01.852Z,11.40
2023-05-11T23:35:03.421Z,11.38
2023-05-11T23:40:06.227Z,11.37
2023-05-11T23:45:08.674Z,11.40
2023-05-11T23:50:11.326Z,11.38
2023-05-11T23:55:12.894Z,11.38
